High gust

Not for real navigation. The accuracy of this data is not assured See disclaimer for more information



ICAO NAME COUNTRY WIND Kt GUST Kt VIS m TEMP/DEW C BARO METAR
CWYK Cape Kiglapait, Nfld. Canada 25 43 9999 -3/0 29.73 CWYK 262100Z AUTO 33025G43KT M03/ A2973 RMK SLP114
BGKK Kulusuk Lufthavn Greenland 30 42 8000 5/1 29.62 BGKK 262050Z 07030G42KT 8000 SHRA OVC025 05/01 Q1003
SAWE Rio Grande B. A. Argentina 30 42 9999 8/-1 29.65 SAWE 262100Z 29030G42KT 9999 FEW015 SCT100 BKN200 08/M01 Q1004
SCRM 31 41 1200 0/0 28.61 SCRM 262100Z 32031G41KT 1200 -BLSN OVC008 M00/// Q0969
SAWH Ushuaia Aerodrome Argentina 25 39 9999 7/-1 29.50 SAWH 262100Z 23025G39KT 9999 SCT040 07/M01 Q0999

Show more